createdAt,value
2022-08-05T00:00:46.275Z,1001.12
2022-08-05T00:01:49.018Z,1001.12
2022-08-05T00:02:43.894Z,1001.17
2022-08-05T00:03:42.663Z,1001.11
2022-08-05T00:04:41.382Z,1001.14
2022-08-05T00:06:05.067Z,1001.04
2022-08-05T00:07:27.003Z,1001.02
2022-08-05T00:08:00.120Z,1001.00
2022-08-05T00:08:42.355Z,1001.03
2022-08-05T00:09:41.625Z,1001.01
2022-08-05T00:10:41.328Z,1001.02
2022-08-05T00:11:48.315Z,1000.99
2022-08-05T00:12:55.962Z,1000.99
2022-08-05T00:13:42.276Z,1000.93
2022-08-05T00:14:41.267Z,1000.95
2022-08-05T00:15:55.905Z,1000.97
2022-08-05T00:16:53.030Z,1000.97
2022-08-05T00:17:42.227Z,1001.03
2022-08-05T00:18:42.336Z,1000.97
2022-08-05T00:19:55.404Z,1000.97
2022-08-05T00:20:42.188Z,1001.01
2022-08-05T00:21:42.721Z,1001.00
2022-08-05T00:22:41.480Z,1000.96
2022-08-05T00:23:46.657Z,1000.95
2022-08-05T00:24:42.748Z,1000.98
2022-08-05T00:25:45.968Z,1000.97
2022-08-05T00:26:43.351Z,1000.96
2022-08-05T00:27:42.867Z,1001.05
2022-08-05T00:28:41.114Z,1001.01
2022-08-05T00:29:41.096Z,1001.05
2022-08-05T00:30:44.174Z,1001.09
2022-08-05T00:31:53.273Z,1001.07
2022-08-05T00:32:42.066Z,1001.08
2022-08-05T00:34:54.614Z,1001.07
2022-08-05T00:35:04.312Z,1001.01
2022-08-05T00:35:47.935Z,1001.02
2022-08-05T00:37:12.653Z,1001.01
2022-08-05T00:37:53.272Z,1000.96
2022-08-05T00:38:42.295Z,1000.95
2022-08-05T00:39:43.994Z,1000.91
2022-08-05T00:40:40.968Z,1000.87
2022-08-05T00:41:55.269Z,1000.82
2022-08-05T00:42:41.935Z,1000.85
2022-08-05T00:43:46.882Z,1000.85
2022-08-05T00:44:41.921Z,1000.83
2022-08-05T00:45:43.614Z,1000.80
2022-08-05T00:46:43.552Z,1000.83
2022-08-05T00:47:57.018Z,1000.78
2022-08-05T00:48:50.597Z,1000.73
2022-08-05T00:49:44.693Z,1000.73
2022-08-05T00:50:42.051Z,1000.75
2022-08-05T00:51:50.978Z,1000.76
2022-08-05T00:52:41.818Z,1000.82
2022-08-05T00:54:01.162Z,1000.83
2022-08-05T00:54:41.804Z,1000.87
2022-08-05T00:55:42.912Z,1000.84
2022-08-05T00:56:40.784Z,1000.85
2022-08-05T00:57:58.371Z,1000.84
2022-08-05T00:58:42.605Z,1000.78
2022-08-05T00:59:44.697Z,1000.82
2022-08-05T01:00:40.788Z,1000.83
2022-08-05T01:01:42.785Z,1000.85
2022-08-05T01:02:41.693Z,1000.88
2022-08-05T01:03:40.683Z,1000.90
2022-08-05T01:04:42.178Z,1000.88
2022-08-05T01:05:40.669Z,1000.88
2022-08-05T01:06:40.645Z,1000.86
2022-08-05T01:07:52.133Z,1000.86
2022-08-05T01:08:44.486Z,1000.80
2022-08-05T01:09:41.616Z,1000.82
2022-08-05T01:10:40.609Z,1000.86
2022-08-05T01:11:41.588Z,1000.82
2022-08-05T01:12:40.585Z,1000.76
2022-08-05T01:13:57.643Z,1000.86
2022-08-05T01:14:41.557Z,1000.81
2022-08-05T01:15:40.538Z,1000.87
2022-08-05T01:16:41.543Z,1000.82
2022-08-05T01:17:40.521Z,1000.84
2022-08-05T01:18:40.523Z,1000.83
2022-08-05T01:20:01.181Z,1000.79
2022-08-05T01:20:41.484Z,1000.83
2022-08-05T01:21:40.487Z,1000.79
2022-08-05T01:22:40.459Z,1000.83
2022-08-05T01:23:53.038Z,1000.81
2022-08-05T01:24:41.724Z,1000.82
2022-08-05T01:25:41.697Z,1000.83
2022-08-05T01:26:40.421Z,1000.81
2022-08-05T01:27:41.060Z,1000.82
2022-08-05T01:28:41.400Z,1000.83
2022-08-05T01:29:40.377Z,1000.90
2022-08-05T01:30:40.671Z,1000.94
2022-08-05T01:31:44.597Z,1000.97
2022-08-05T01:32:40.338Z,1001.04
2022-08-05T01:33:41.658Z,1001.06
2022-08-05T01:34:41.329Z,1001.03
2022-08-05T01:35:51.967Z,1001.00
2022-08-05T01:36:42.334Z,1001.05
2022-08-05T01:37:44.388Z,1001.02
2022-08-05T01:38:40.271Z,1000.98
2022-08-05T01:39:47.211Z,1001.01
2022-08-05T01:40:41.276Z,1000.99
2022-08-05T01:41:40.244Z,1000.98
2022-08-05T01:42:40.665Z,1000.97
2022-08-05T01:43:40.234Z,1000.96
2022-08-05T01:44:40.223Z,1001.03
2022-08-05T01:45:43.088Z,1001.07
2022-08-05T01:46:42.442Z,1001.11
2022-08-05T01:47:43.474Z,1001.16
2022-08-05T01:48:40.144Z,1001.17
2022-08-05T01:50:00.511Z,1001.23
2022-08-05T01:50:41.341Z,1001.21
2022-08-05T01:51:41.128Z,1001.21
2022-08-05T01:52:41.097Z,1001.20
2022-08-05T01:53:57.923Z,1001.19
2022-08-05T01:54:46.260Z,1001.17
2022-08-05T01:55:41.110Z,1001.17
2022-08-05T01:58:10.630Z,1001.16
2022-08-05T01:58:29.305Z,1001.16
2022-08-05T01:58:45.016Z,1001.11
2022-08-05T01:59:40.041Z,1001.09
2022-08-05T02:00:40.695Z,1001.09
2022-08-05T02:01:40.564Z,1001.12
2022-08-05T02:02:46.521Z,1001.14
2022-08-05T02:03:40.969Z,1001.11
2022-08-05T02:04:40.510Z,1001.13
2022-08-05T02:05:39.948Z,1001.12
2022-08-05T02:06:39.964Z,1001.10
2022-08-05T02:07:40.943Z,1001.11
2022-08-05T02:08:54.952Z,1001.14
2022-08-05T02:09:40.922Z,1001.18
2022-08-05T02:10:39.886Z,1001.22
2022-08-05T02:11:42.252Z,1001.23
2022-08-05T02:12:40.873Z,1001.25
2022-08-05T02:13:53.431Z,1001.23
2022-08-05T02:14:40.857Z,1001.25
2022-08-05T02:15:39.846Z,1001.23
2022-08-05T02:16:39.834Z,1001.21
2022-08-05T02:18:31.171Z,1001.21
2022-08-05T02:18:42.004Z,1001.19
2022-08-05T02:19:46.912Z,1001.20
2022-08-05T02:20:40.826Z,1001.29
2022-08-05T02:21:43.108Z,1001.31
2022-08-05T02:22:41.056Z,1001.36
2022-08-05T02:23:39.748Z,1001.47
2022-08-05T02:24:39.752Z,1001.48
2022-08-05T02:25:50.182Z,1001.53
2022-08-05T02:26:41.118Z,1001.57
2022-08-05T02:27:58.467Z,1001.66
2022-08-05T02:28:41.698Z,1001.68
2022-08-05T02:29:59.054Z,1001.73
2022-08-05T02:30:51.761Z,1001.76
2022-08-05T02:31:40.662Z,1001.72
2022-08-05T02:32:39.629Z,1001.80
2022-08-05T02:33:39.643Z,1001.78
2022-08-05T02:34:40.045Z,1001.84
2022-08-05T02:35:50.884Z,1001.91
2022-08-05T02:36:40.594Z,1001.91
2022-08-05T02:37:39.581Z,1001.96
2022-08-05T02:38:39.573Z,1001.93
2022-08-05T02:39:41.275Z,1001.98
2022-08-05T02:40:39.819Z,1001.97
2022-08-05T02:41:58.242Z,1001.99
2022-08-05T02:42:52.840Z,1001.98
2022-08-05T02:44:02.870Z,1001.99
2022-08-05T02:44:40.499Z,1001.99
2022-08-05T02:45:52.149Z,1001.98
2022-08-05T02:46:53.544Z,1002.01
2022-08-05T02:48:06.811Z,1002.00
2022-08-05T02:48:40.444Z,1001.97
2022-08-05T02:49:40.602Z,1001.96
2022-08-05T02:50:39.426Z,1001.87
2022-08-05T02:52:02.917Z,1001.86
2022-08-05T02:52:40.769Z,1001.80
2022-08-05T02:53:40.416Z,1001.75
2022-08-05T02:54:41.328Z,1001.80
2022-08-05T02:55:48.336Z,1001.75
2022-08-05T02:56:40.360Z,1001.79
2022-08-05T02:58:12.235Z,1001.83
2022-08-05T02:58:43.649Z,1001.89
2022-08-05T02:59:50.417Z,1001.88
2022-08-05T03:00:40.299Z,1001.89
2022-08-05T03:01:39.311Z,1001.89
2022-08-05T03:02:39.277Z,1001.95
2022-08-05T03:04:09.885Z,1001.91
2022-08-05T03:04:40.546Z,1001.89
2022-08-05T03:06:53.703Z,1001.89
2022-08-05T03:06:56.029Z,1001.85
2022-08-05T03:08:01.307Z,1001.95
2022-08-05T03:08:42.817Z,1002.00
2022-08-05T03:09:43.956Z,1002.01
2022-08-05T03:10:40.506Z,1002.05
2022-08-05T03:11:55.382Z,1002.10
2022-08-05T03:12:40.177Z,1002.10
2022-08-05T03:13:52.268Z,1002.13
2022-08-05T03:14:45.567Z,1002.12
2022-08-05T03:15:40.137Z,1002.19
2022-08-05T03:16:39.118Z,1002.16
2022-08-05T03:17:41.921Z,1002.21
2022-08-05T03:18:42.087Z,1002.14
2022-08-05T03:19:39.088Z,1002.15
2022-08-05T03:20:39.267Z,1002.09
2022-08-05T03:21:41.692Z,1002.13
2022-08-05T03:22:44.081Z,1002.12
2022-08-05T03:23:40.037Z,1002.14
2022-08-05T03:24:39.030Z,1002.10
2022-08-05T03:26:04.663Z,1002.12
2022-08-05T03:26:40.001Z,1002.12
2022-08-05T03:27:57.947Z,1002.16
2022-08-05T03:28:39.982Z,1002.20
2022-08-05T03:29:46.047Z,1002.22
2022-08-05T03:30:41.067Z,1002.23
2022-08-05T03:31:56.962Z,1002.20
2022-08-05T03:32:39.951Z,1002.14
2022-08-05T03:33:51.060Z,1002.14
2022-08-05T03:34:39.915Z,1002.05
2022-08-05T03:35:41.256Z,1001.92
2022-08-05T03:36:38.895Z,1001.85
2022-08-05T03:37:46.392Z,1001.81
2022-08-05T03:38:40.053Z,1001.80
2022-08-05T03:39:57.752Z,1001.73
2022-08-05T03:40:39.889Z,1001.56
2022-08-05T03:41:46.812Z,1001.33
2022-08-05T03:42:41.755Z,1001.14
2022-08-05T03:44:09.024Z,1000.96
2022-08-05T03:44:39.776Z,1000.93
2022-08-05T03:45:57.999Z,1000.89
2022-08-05T03:46:39.766Z,1000.86
2022-08-05T03:47:41.402Z,1000.84
2022-08-05T03:48:38.749Z,1000.73
2022-08-05T03:49:51.267Z,1000.55
2022-08-05T03:50:39.727Z,1000.47
2022-08-05T03:52:48.601Z,1000.50
2022-08-05T03:55:00.335Z,1000.55
2022-08-05T03:55:52.226Z,1000.53
2022-08-05T03:55:53.788Z,1000.59
2022-08-05T03:56:06.228Z,1000.49
2022-08-05T03:56:41.315Z,1000.43
2022-08-05T03:57:42.337Z,1000.47
2022-08-05T03:58:38.632Z,1000.48
2022-08-05T03:59:47.374Z,1000.51
2022-08-05T04:00:39.803Z,1000.57
2022-08-05T04:01:38.605Z,1000.63
2022-08-05T04:02:52.207Z,1000.70
2022-08-05T04:03:39.570Z,1000.78
2022-08-05T04:04:38.550Z,1000.87
2022-08-05T04:05:40.188Z,1000.87
2022-08-05T04:06:38.522Z,1000.94
2022-08-05T04:07:58.177Z,1000.92
2022-08-05T04:08:39.503Z,1001.02
2022-08-05T04:09:38.505Z,1001.08
2022-08-05T04:10:39.855Z,1001.07
2022-08-05T04:11:50.810Z,1001.08
2022-08-05T04:13:10.726Z,1001.03
2022-08-05T04:14:10.484Z,1001.00
2022-08-05T04:15:15.605Z,1000.99
2022-08-05T04:16:11.486Z,1001.07
2022-08-05T04:17:11.325Z,1001.12
2022-08-05T04:18:12.710Z,1001.16
2022-08-05T04:19:11.759Z,1001.20
2022-08-05T04:20:10.427Z,1001.29
2022-08-05T04:21:10.933Z,1001.25
2022-08-05T04:22:12.285Z,1001.32
2022-08-05T04:23:12.429Z,1001.40
2022-08-05T04:24:18.869Z,1001.40
2022-08-05T04:25:11.649Z,1001.48
2022-08-05T04:26:10.371Z,1001.50
2022-08-05T04:27:10.363Z,1001.49
2022-08-05T04:28:12.720Z,1001.45
2022-08-05T04:29:10.328Z,1001.48
2022-08-05T04:30:10.631Z,1001.48
2022-08-05T04:31:10.572Z,1001.48
2022-08-05T04:32:10.288Z,1001.47
2022-08-05T04:33:10.554Z,1001.47
2022-08-05T04:34:31.434Z,1001.48
2022-08-05T04:35:17.408Z,1001.48
2022-08-05T04:36:16.417Z,1001.46
2022-08-05T04:37:11.235Z,1001.47
2022-08-05T04:38:10.226Z,1001.44
2022-08-05T04:39:11.298Z,1001.45
2022-08-05T04:40:12.868Z,1001.45
2022-08-05T04:41:10.544Z,1001.41
2022-08-05T04:42:10.183Z,1001.39
2022-08-05T04:43:10.950Z,1001.39
2022-08-05T04:44:11.144Z,1001.31
2022-08-05T04:45:10.166Z,1001.36
2022-08-05T04:46:10.139Z,1001.36
2022-08-05T04:47:10.702Z,1001.41
2022-08-05T04:48:13.300Z,1001.37
2022-08-05T04:49:14.522Z,1001.38
2022-08-05T04:50:11.630Z,1001.43
2022-08-05T04:51:11.216Z,1001.39
2022-08-05T04:52:10.060Z,1001.41
2022-08-05T04:53:10.047Z,1001.40
2022-08-05T04:54:10.267Z,1001.39
2022-08-05T04:55:14.362Z,1001.47
2022-08-05T04:56:33.934Z,1001.51
2022-08-05T04:57:11.015Z,1001.50
2022-08-05T04:58:12.326Z,1001.52
2022-08-05T04:59:22.461Z,1001.57
2022-08-05T05:00:10.979Z,1001.51
2022-08-05T05:01:12.627Z,1001.58
2022-08-05T05:02:37.112Z,1001.65
2022-08-05T05:03:13.661Z,1001.62
2022-08-05T05:04:10.934Z,1001.74
2022-08-05T05:05:17.038Z,1001.78
2022-08-05T05:06:40.636Z,1001.75
2022-08-05T05:07:11.212Z,1001.67
2022-08-05T05:08:14.338Z,1001.64
2022-08-05T05:09:10.886Z,1001.57
2022-08-05T05:10:09.866Z,1001.55
2022-08-05T05:11:09.843Z,1001.48
2022-08-05T05:12:11.546Z,1001.41
2022-08-05T05:13:09.835Z,1001.34
2022-08-05T05:14:09.820Z,1001.35
2022-08-05T05:15:11.148Z,1001.45
2022-08-05T05:16:09.793Z,1001.55
2022-08-05T05:17:09.791Z,1001.60
2022-08-05T05:18:09.763Z,1001.60
2022-08-05T05:19:19.469Z,1001.60
2022-08-05T05:20:10.990Z,1001.46
2022-08-05T05:21:09.747Z,1001.46
2022-08-05T05:22:24.137Z,1001.48
2022-08-05T05:23:19.539Z,1001.53
2022-08-05T05:24:12.411Z,1001.57
2022-08-05T05:25:16.444Z,1001.61
2022-08-05T05:26:10.670Z,1001.70
2022-08-05T05:27:09.659Z,1001.63
2022-08-05T05:28:09.663Z,1001.67
2022-08-05T05:29:14.319Z,1001.67
2022-08-05T05:30:15.308Z,1001.63
2022-08-05T05:31:10.619Z,1001.64
2022-08-05T05:32:12.460Z,1001.58
2022-08-05T05:33:17.177Z,1001.54
2022-08-05T05:34:10.589Z,1001.50
2022-08-05T05:35:09.584Z,1001.55
2022-08-05T05:36:09.762Z,1001.59
2022-08-05T05:37:09.567Z,1001.56
2022-08-05T05:38:12.894Z,1001.59
2022-08-05T05:39:11.037Z,1001.60
2022-08-05T05:40:09.512Z,1001.60
2022-08-05T05:41:09.524Z,1001.61
2022-08-05T05:42:09.804Z,1001.62
2022-08-05T05:43:09.500Z,1001.60
2022-08-05T05:44:35.434Z,1001.61
2022-08-05T05:45:10.483Z,1001.61
2022-08-05T05:46:16.054Z,1001.58
2022-08-05T05:47:21.356Z,1001.60
2022-08-05T05:48:10.440Z,1001.58
2022-08-05T05:49:22.314Z,1001.59
2022-08-05T05:50:10.407Z,1001.59
2022-08-05T05:51:15.885Z,1001.59
2022-08-05T05:52:13.057Z,1001.57
2022-08-05T05:53:21.215Z,1001.64
2022-08-05T05:54:11.640Z,1001.63
2022-08-05T05:55:13.517Z,1001.64
2022-08-05T05:56:09.342Z,1001.55
2022-08-05T05:57:13.712Z,1001.56
2022-08-05T05:58:09.334Z,1001.57
2022-08-05T05:59:09.542Z,1001.57
2022-08-05T06:00:12.012Z,1001.65
2022-08-05T06:01:13.268Z,1001.66
2022-08-05T06:02:10.274Z,1001.68
2022-08-05T06:03:40.538Z,1001.70
2022-08-05T06:04:12.029Z,1001.63
2022-08-05T06:05:14.654Z,1001.64
2022-08-05T06:06:10.492Z,1001.63
2022-08-05T06:07:09.227Z,1001.58
2022-08-05T06:08:11.027Z,1001.65
2022-08-05T06:09:09.184Z,1001.66
2022-08-05T06:10:12.923Z,1001.66
2022-08-05T06:11:09.177Z,1001.68
2022-08-05T06:12:09.538Z,1001.69
2022-08-05T06:13:09.135Z,1001.73
2022-08-05T06:14:09.148Z,1001.73
2022-08-05T06:15:12.344Z,1001.83
2022-08-05T06:16:29.280Z,1001.89
2022-08-05T06:17:21.684Z,1001.91
2022-08-05T06:18:10.096Z,1001.89
2022-08-05T06:19:09.088Z,1001.89
2022-08-05T06:20:09.697Z,1001.83
2022-08-05T06:21:16.589Z,1001.78
2022-08-05T06:22:10.079Z,1001.67
2022-08-05T06:23:09.038Z,1001.62
2022-08-05T06:24:11.800Z,1001.62
2022-08-05T06:25:59.078Z,1001.68
2022-08-05T06:26:21.287Z,1001.65
2022-08-05T06:28:09.521Z,1001.73
2022-08-05T06:28:11.645Z,1001.69
2022-08-05T06:29:25.378Z,1001.68
2022-08-05T06:30:17.757Z,1001.67
2022-08-05T06:31:11.105Z,1001.67
2022-08-05T06:32:26.329Z,1001.71
2022-08-05T06:33:10.851Z,1001.80
2022-08-05T06:34:09.252Z,1001.81
2022-08-05T06:35:21.930Z,1001.85
2022-08-05T06:36:11.853Z,1001.89
2022-08-05T06:37:08.894Z,1001.85
2022-08-05T06:38:11.689Z,1001.88
2022-08-05T06:39:08.911Z,1001.96
2022-08-05T06:40:08.859Z,1001.96
2022-08-05T06:41:09.175Z,1002.01
2022-08-05T06:42:08.826Z,1001.99
2022-08-05T06:43:58.488Z,1001.95
2022-08-05T06:44:09.785Z,1001.91
2022-08-05T06:45:09.284Z,1001.82
2022-08-05T06:46:09.098Z,1001.83
2022-08-05T06:47:10.307Z,1001.84
2022-08-05T06:48:36.309Z,1001.80
2022-08-05T06:49:09.748Z,1001.89
2022-08-05T06:50:08.750Z,1001.91
2022-08-05T06:51:12.008Z,1002.00
2022-08-05T06:52:38.051Z,1002.09
2022-08-05T06:53:11.506Z,1002.10
2022-08-05T06:54:08.968Z,1002.18
2022-08-05T06:55:08.992Z,1002.18
2022-08-05T06:56:25.964Z,1002.28
2022-08-05T06:57:56.713Z,1002.25
2022-08-05T06:58:29.747Z,1002.31
2022-08-05T06:59:11.881Z,1002.39
2022-08-05T07:00:09.667Z,1002.36
2022-08-05T07:01:08.662Z,1002.43
2022-08-05T07:02:08.580Z,1002.46
2022-08-05T07:03:09.633Z,1002.50
2022-08-05T07:04:08.620Z,1002.48
2022-08-05T07:05:14.277Z,1002.48
2022-08-05T07:06:14.270Z,1002.44
2022-08-05T07:07:09.582Z,1002.44
2022-08-05T07:08:10.632Z,1002.41
2022-08-05T07:09:08.755Z,1002.38
2022-08-05T07:10:08.514Z,1002.41
2022-08-05T07:11:15.522Z,1002.44
2022-08-05T07:12:09.465Z,1002.46
2022-08-05T07:13:08.459Z,1002.47
2022-08-05T07:14:08.462Z,1002.40
2022-08-05T07:15:09.438Z,1002.40
2022-08-05T07:16:08.427Z,1002.37
2022-08-05T07:17:58.539Z,1002.41
2022-08-05T07:18:12.496Z,1002.42
2022-08-05T07:19:09.386Z,1002.39
2022-08-05T07:20:32.485Z,1002.41
2022-08-05T07:21:10.180Z,1002.40
2022-08-05T07:22:08.679Z,1002.42
2022-08-05T07:23:08.337Z,1002.44
2022-08-05T07:24:15.367Z,1002.44
2022-08-05T07:25:21.974Z,1002.52
2022-08-05T07:26:09.335Z,1002.47
2022-08-05T07:27:08.779Z,1002.49
2022-08-05T07:28:11.616Z,1002.52
2022-08-05T07:29:09.288Z,1002.55
2022-08-05T07:30:23.806Z,1002.63
2022-08-05T07:31:10.159Z,1002.62
2022-08-05T07:32:08.259Z,1002.63
2022-08-05T07:33:09.812Z,1002.65
2022-08-05T07:34:08.455Z,1002.67
2022-08-05T07:35:56.827Z,1002.66
2022-08-05T07:36:21.262Z,1002.68
2022-08-05T07:37:11.733Z,1002.73
2022-08-05T07:38:12.366Z,1002.76
2022-08-05T07:39:09.221Z,1002.76
2022-08-05T07:40:32.311Z,1002.82
2022-08-05T07:41:34.958Z,1002.81
2022-08-05T07:42:15.049Z,1002.80
2022-08-05T07:43:20.328Z,1002.80
2022-08-05T07:44:14.132Z,1002.82
2022-08-05T07:45:09.406Z,1002.86
2022-08-05T07:46:23.476Z,1002.81
2022-08-05T07:47:10.117Z,1002.80
2022-08-05T07:48:08.234Z,1002.77
2022-08-05T07:49:08.376Z,1002.74
2022-08-05T07:50:08.077Z,1002.79
2022-08-05T07:51:22.997Z,1002.83
2022-08-05T07:52:09.675Z,1002.83
2022-08-05T07:53:08.161Z,1002.78
2022-08-05T07:54:10.002Z,1002.82
2022-08-05T07:55:15.847Z,1002.85
2022-08-05T07:57:00.265Z,1002.86
2022-08-05T07:57:23.649Z,1002.89
2022-08-05T07:58:09.511Z,1002.88
2022-08-05T07:59:08.940Z,1002.88
2022-08-05T08:00:11.361Z,1002.88
2022-08-05T08:01:12.163Z,1002.90
2022-08-05T08:02:16.063Z,1002.92
2022-08-05T08:03:13.998Z,1002.89
2022-08-05T08:04:08.867Z,1002.89
2022-08-05T08:05:08.077Z,1002.92
2022-08-05T08:06:08.261Z,1002.88
2022-08-05T08:07:08.262Z,1002.94
2022-08-05T08:08:12.495Z,1002.96
2022-08-05T08:09:07.872Z,1002.97
2022-08-05T08:10:08.762Z,1003.00
2022-08-05T08:11:08.861Z,1003.00
2022-08-05T08:12:35.370Z,1003.00
2022-08-05T08:13:08.982Z,1003.07
2022-08-05T08:14:07.772Z,1003.10
2022-08-05T08:15:09.490Z,1003.16
2022-08-05T08:16:35.376Z,1003.23
2022-08-05T08:17:08.733Z,1003.24
2022-08-05T08:18:13.675Z,1003.31
2022-08-05T08:19:08.710Z,1003.37
2022-08-05T08:20:21.653Z,1003.39
2022-08-05T08:21:09.840Z,1003.37
2022-08-05T08:22:09.070Z,1003.47
2022-08-05T08:23:59.672Z,1003.46
2022-08-05T08:24:13.806Z,1003.44
2022-08-05T08:25:16.282Z,1003.43
2022-08-05T08:26:08.614Z,1003.48
2022-08-05T08:27:07.786Z,1003.47
2022-08-05T08:28:18.390Z,1003.44
2022-08-05T08:29:45.358Z,1003.47
2022-08-05T08:30:29.954Z,1003.41
2022-08-05T08:31:08.598Z,1003.44
2022-08-05T08:32:07.552Z,1003.46
2022-08-05T08:33:08.228Z,1003.46
2022-08-05T08:34:07.568Z,1003.49
2022-08-05T08:35:07.736Z,1003.51
2022-08-05T08:37:08.500Z,1003.57
2022-08-05T08:38:07.480Z,1003.62
2022-08-05T08:39:15.103Z,1003.62
2022-08-05T08:40:08.471Z,1003.67
2022-08-05T08:41:07.504Z,1003.77
2022-08-05T08:42:10.835Z,1003.76
2022-08-05T08:45:16.138Z,1003.75
2022-08-05T08:45:22.228Z,1003.78
2022-08-05T08:45:22.490Z,1003.76
2022-08-05T08:46:10.112Z,1003.82
2022-08-05T08:47:47.699Z,1003.87
2022-08-05T08:48:22.663Z,1003.88
2022-08-05T08:50:07.600Z,1003.86
2022-08-05T08:50:31.199Z,1003.90
2022-08-05T08:52:04.306Z,1003.91
2022-08-05T08:52:13.614Z,1003.93
2022-08-05T08:53:11.838Z,1003.94
2022-08-05T08:54:07.674Z,1003.96
2022-08-05T08:55:13.294Z,1003.96
2022-08-05T08:56:08.301Z,1003.96
2022-08-05T08:57:11.257Z,1003.95
2022-08-05T08:58:07.268Z,1003.96
2022-08-05T08:59:14.619Z,1003.88
2022-08-05T09:00:09.091Z,1003.90
2022-08-05T09:01:07.306Z,1003.91
2022-08-05T09:02:08.659Z,1003.90
2022-08-05T09:03:07.464Z,1003.88
2022-08-05T09:04:07.187Z,1003.91
2022-08-05T09:05:17.559Z,1003.96
2022-08-05T09:06:11.633Z,1004.03
2022-08-05T09:07:10.668Z,1003.97
2022-08-05T09:08:09.758Z,1003.99
2022-08-05T09:09:07.158Z,1003.98
2022-08-05T09:10:07.111Z,1003.97
2022-08-05T09:11:07.110Z,1003.97
2022-08-05T09:12:19.855Z,1004.04
2022-08-05T09:13:08.322Z,1004.06
2022-08-05T09:14:54.424Z,1004.09
2022-08-05T09:15:08.934Z,1004.09
2022-08-05T09:16:07.070Z,1004.07
2022-08-05T09:17:09.654Z,1004.10
2022-08-05T09:18:08.668Z,1004.14
2022-08-05T09:19:07.056Z,1004.12
2022-08-05T09:20:08.434Z,1004.14
2022-08-05T09:21:11.759Z,1004.17
2022-08-05T09:22:21.973Z,1004.17
2022-08-05T09:23:09.470Z,1004.22
2022-08-05T09:24:07.270Z,1004.23
2022-08-05T09:25:14.073Z,1004.28
2022-08-05T09:26:08.526Z,1004.26
2022-08-05T09:27:06.930Z,1004.29
2022-08-05T09:28:06.915Z,1004.31
2022-08-05T09:29:07.121Z,1004.33
2022-08-05T09:30:07.044Z,1004.35
2022-08-05T09:31:44.036Z,1004.33
2022-08-05T09:32:40.378Z,1004.39
2022-08-05T09:33:07.871Z,1004.34
2022-08-05T09:34:06.876Z,1004.39
2022-08-05T09:35:28.917Z,1004.40
2022-08-05T09:36:16.232Z,1004.41
2022-08-05T09:37:15.280Z,1004.39
2022-08-05T09:38:17.046Z,1004.42
2022-08-05T09:39:18.553Z,1004.38
2022-08-05T09:40:07.845Z,1004.43
2022-08-05T09:41:06.775Z,1004.43
2022-08-05T09:42:07.798Z,1004.41
2022-08-05T09:43:08.470Z,1004.40
2022-08-05T09:44:09.429Z,1004.38
2022-08-05T09:45:17.946Z,1004.43
2022-08-05T09:46:09.666Z,1004.43
2022-08-05T09:47:06.690Z,1004.43
2022-08-05T09:48:07.680Z,1004.42
2022-08-05T09:49:18.993Z,1004.43
2022-08-05T09:50:08.310Z,1004.44
2022-08-05T09:51:15.141Z,1004.44
2022-08-05T09:52:07.645Z,1004.45
2022-08-05T09:53:06.751Z,1004.47
2022-08-05T09:54:07.385Z,1004.44
2022-08-05T09:55:58.343Z,1004.42
2022-08-05T09:56:13.344Z,1004.45
2022-08-05T09:57:20.610Z,1004.46
2022-08-05T09:58:07.563Z,1004.50
2022-08-05T09:59:06.553Z,1004.52
2022-08-05T10:00:07.870Z,1004.51
2022-08-05T10:01:13.590Z,1004.51
2022-08-05T10:02:07.524Z,1004.57
2022-08-05T10:03:06.553Z,1004.55
2022-08-05T10:04:10.462Z,1004.57
2022-08-05T10:05:07.957Z,1004.59
2022-08-05T10:06:14.783Z,1004.54
2022-08-05T10:07:20.984Z,1004.59
2022-08-05T10:08:36.586Z,1004.60
2022-08-05T10:09:07.889Z,1004.65
2022-08-05T10:10:15.081Z,1004.63
2022-08-05T10:11:08.332Z,1004.67
2022-08-05T10:12:07.614Z,1004.69
2022-08-05T10:13:09.940Z,1004.71
2022-08-05T10:14:06.389Z,1004.74
2022-08-05T10:15:06.378Z,1004.75
2022-08-05T10:16:06.348Z,1004.79
2022-08-05T10:17:06.511Z,1004.84
2022-08-05T10:18:07.345Z,1004.84
2022-08-05T10:19:09.144Z,1004.86
2022-08-05T10:20:10.086Z,1004.82
2022-08-05T10:21:12.001Z,1004.83
2022-08-05T10:22:07.290Z,1004.88
2022-08-05T10:23:08.991Z,1004.85
2022-08-05T10:24:10.823Z,1004.91
2022-08-05T10:25:06.251Z,1004.91
2022-08-05T10:26:07.108Z,1004.96
2022-08-05T10:27:07.564Z,1004.97
2022-08-05T10:28:12.768Z,1004.98
2022-08-05T10:29:07.504Z,1004.98
2022-08-05T10:32:46.767Z,1005.03
2022-08-05T10:32:53.401Z,1004.98
2022-08-05T10:32:54.723Z,1005.06
2022-08-05T10:33:09.214Z,1005.03
2022-08-05T10:34:08.124Z,1005.08
2022-08-05T10:35:06.384Z,1005.03
2022-08-05T10:36:06.139Z,1005.01
2022-08-05T10:37:06.119Z,1005.03
2022-08-05T10:38:06.107Z,1005.10
2022-08-05T10:39:10.315Z,1005.11
2022-08-05T10:40:18.111Z,1005.11
2022-08-05T10:41:07.109Z,1005.12
2022-08-05T10:42:06.057Z,1005.12
2022-08-05T10:43:06.371Z,1005.14
2022-08-05T10:44:07.071Z,1005.12
2022-08-05T10:45:21.530Z,1005.17
2022-08-05T10:46:07.284Z,1005.17
2022-08-05T10:47:10.251Z,1005.16
2022-08-05T10:48:29.971Z,1005.16
2022-08-05T10:49:10.472Z,1005.21
2022-08-05T10:50:32.496Z,1005.19
2022-08-05T10:51:22.458Z,1005.23
2022-08-05T10:52:10.482Z,1005.28
2022-08-05T10:53:05.946Z,1005.31
2022-08-05T10:54:28.387Z,1005.33
2022-08-05T10:55:06.944Z,1005.38
2022-08-05T10:56:21.281Z,1005.36
2022-08-05T10:57:07.106Z,1005.38
2022-08-05T10:58:05.896Z,1005.44
2022-08-05T10:59:12.207Z,1005.44
2022-08-05T11:00:13.398Z,1005.42
2022-08-05T11:01:06.845Z,1005.49
2022-08-05T11:02:05.918Z,1005.49
2022-08-05T11:03:25.890Z,1005.47
2022-08-05T11:04:06.804Z,1005.53
2022-08-05T11:05:05.830Z,1005.53
2022-08-05T11:06:08.318Z,1005.55
2022-08-05T11:07:06.816Z,1005.55
2022-08-05T11:08:27.664Z,1005.58
2022-08-05T11:09:06.748Z,1005.51
2022-08-05T11:10:09.887Z,1005.57
2022-08-05T11:11:14.596Z,1005.59
2022-08-05T11:12:06.725Z,1005.58
2022-08-05T11:13:05.708Z,1005.66
2022-08-05T11:14:05.922Z,1005.61
2022-08-05T11:15:19.857Z,1005.63
2022-08-05T11:16:06.677Z,1005.61
2022-08-05T11:17:57.921Z,1005.66
2022-08-05T11:18:06.863Z,1005.65
2022-08-05T11:20:10.433Z,1005.63
2022-08-05T11:20:11.016Z,1005.64
2022-08-05T11:21:11.605Z,1005.64
2022-08-05T11:22:06.876Z,1005.62
2022-08-05T11:23:10.423Z,1005.63
2022-08-05T11:24:14.486Z,1005.62
2022-08-05T11:26:03.550Z,1005.70
2022-08-05T11:26:08.891Z,1005.74
2022-08-05T11:27:05.554Z,1005.71
2022-08-05T11:28:05.897Z,1005.74
2022-08-05T11:29:12.937Z,1005.75
2022-08-05T11:30:06.522Z,1005.80
2022-08-05T11:31:06.797Z,1005.78
2022-08-05T11:32:05.924Z,1005.81
2022-08-05T11:33:05.929Z,1005.78
2022-08-05T11:34:08.083Z,1005.82
2022-08-05T11:35:06.521Z,1005.87
2022-08-05T11:36:08.733Z,1005.84
2022-08-05T11:38:14.286Z,1005.81
2022-08-05T11:38:37.005Z,1005.80
2022-08-05T11:39:06.444Z,1005.80
2022-08-05T11:40:05.496Z,1005.77
2022-08-05T11:41:34.170Z,1005.79
2022-08-05T11:42:27.903Z,1005.78
2022-08-05T11:43:05.391Z,1005.79
2022-08-05T11:44:08.243Z,1005.82
2022-08-05T11:45:05.643Z,1005.73
2022-08-05T11:46:15.411Z,1005.74
2022-08-05T11:47:10.440Z,1005.76
2022-08-05T11:48:07.361Z,1005.70
2022-08-05T11:49:05.431Z,1005.70
2022-08-05T11:50:05.447Z,1005.66
2022-08-05T11:51:05.298Z,1005.72
2022-08-05T11:52:08.828Z,1005.68
2022-08-05T11:53:10.003Z,1005.70
2022-08-05T11:54:05.322Z,1005.68
2022-08-05T11:55:07.059Z,1005.69
2022-08-05T11:56:06.524Z,1005.74
2022-08-05T11:57:08.751Z,1005.71
2022-08-05T11:58:10.649Z,1005.73
2022-08-05T11:59:13.754Z,1005.67
2022-08-05T12:00:07.170Z,1005.71
2022-08-05T12:01:08.521Z,1005.72
2022-08-05T12:02:06.535Z,1005.69
2022-08-05T12:03:06.159Z,1005.66
2022-08-05T12:04:05.435Z,1005.69
2022-08-05T12:05:07.728Z,1005.69
2022-08-05T12:06:09.798Z,1005.70
2022-08-05T12:07:07.058Z,1005.72